Pipe Creek, Texas
Current Conditions -  °F | °C
As of 11:15 AM on Saturday 20 Dec 2014 (Local Time) from K5C1 Reporting Station
Overcast Overcast  
Wind Chill: 43°   Ceiling: 1200
Heat Index: 46°   Visibility: 10mi
Dew Point: 41°   Wind: 7mph
Humidity: 81%   Direction: 10°N
Pressure: 30.24"   Gusts: NA
Location:  29.69°N, 98.94°W
Report Text: K5C1 201715Z AUTO 01006KT 10SM OVC012 08/05 A3024 RMK AO1
Loading
Personal Weather Stations






























Interactive Weather Map New forecast layout! Learn more

10-Day Weather Forecast

Advertisements
Track Severe Weather on mobile